VSV746 UAAA-UAII
Flight info
| Callsign | VSV746 |
|---|---|
| Flight time | 1h 3m |
| Altitude | 34000 |
| Route | EKLAT Z370 AGLEK Z817 TAR N143 ANESA Z580 KOLAM N143 TURIK TURIK4H |
| Aircraft | B38M/M-SDE1FGHILORVWXY/HB1 |
Departure
| Time | 2026-05-04 11:45 |
|---|---|
| Airport | Almaty International Airport (UAAA) |
Arrival
| Time | 2026-05-04 12:48 |
|---|---|
| Airport | Shymkent International Airport (UAII) |
| Time | Latitude | Longitude | Altitude | Speed | Heading |
|---|---|---|---|---|---|
| 2026-05-04 11:13 | 43.34867 | 77.01896 | 2231 ft | 0 kts | 6° |
| 2026-05-04 11:37 | 43.34886 | 77.01899 | 2228 ft | 8 kts | 15° |
| 2026-05-04 11:37 | 43.34907 | 77.01986 | 2231 ft | 11 kts | 91° |
| 2026-05-04 11:37 | 43.34898 | 77.02097 | 2227 ft | 12 kts | 119° |
| 2026-05-04 11:37 | 43.34826 | 77.02118 | 2227 ft | 10 kts | 176° |
| 2026-05-04 11:38 | 43.34792 | 77.02146 | 2230 ft | 3 kts | 114° |
| 2026-05-04 11:38 | 43.34788 | 77.02188 | 2231 ft | 7 kts | 93° |
| 2026-05-04 11:38 | 43.34783 | 77.02285 | 2231 ft | 13 kts | 96° |
| 2026-05-04 11:38 | 43.34777 | 77.02443 | 2232 ft | 19 kts | 93° |
| 2026-05-04 11:39 | 43.34777 | 77.02659 | 2230 ft | 26 kts | 88° |
| 2026-05-04 11:39 | 43.34786 | 77.02900 | 2227 ft | 23 kts | 87° |
| 2026-05-04 11:40 | 43.35439 | 77.04398 | 2231 ft | 33 kts | 55° |
| 2026-05-04 11:41 | 43.35568 | 77.04653 | 2232 ft | 33 kts | 54° |
| 2026-05-04 11:41 | 43.35688 | 77.04902 | 2232 ft | 29 kts | 59° |
| 2026-05-04 11:41 | 43.35802 | 77.05134 | 2231 ft | 30 kts | 51° |
| 2026-05-04 11:41 | 43.35915 | 77.05369 | 2232 ft | 30 kts | 56° |
| 2026-05-04 11:42 | 43.36032 | 77.05592 | 2234 ft | 27 kts | 57° |
| 2026-05-04 11:42 | 43.36135 | 77.05812 | 2235 ft | 28 kts | 52° |
| 2026-05-04 11:42 | 43.36240 | 77.06013 | 2234 ft | 25 kts | 52° |
| 2026-05-04 11:42 | 43.36298 | 77.06108 | 2232 ft | 10 kts | 51° |
| 2026-05-04 11:43 | 43.36332 | 77.06164 | 2232 ft | 1 kts | 75° |
| 2026-05-04 11:43 | 43.36331 | 77.06166 | 2232 ft | 0 kts | 99° |
| 2026-05-04 11:43 | 43.36323 | 77.06166 | 2232 ft | 2 kts | 195° |
| 2026-05-04 11:43 | 43.36285 | 77.06104 | 2233 ft | 26 kts | 234° |
| 2026-05-04 11:44 | 43.36092 | 77.05717 | 2235 ft | 65 kts | 235° |
| 2026-05-04 11:44 | 43.35767 | 77.05058 | 2227 ft | 103 kts | 236° |
| 2026-05-04 11:44 | 43.35280 | 77.04077 | 2227 ft | 145 kts | 236° |
| 2026-05-04 11:44 | 43.34654 | 77.02830 | 2416 ft | 157 kts | 236° |
| 2026-05-04 11:45 | 43.34108 | 77.01649 | 3111 ft | 143 kts | 236° |
| 2026-05-04 11:45 | 43.33497 | 77.00439 | 3325 ft | 166 kts | 226° |
| 2026-05-04 11:45 | 43.32682 | 76.99272 | 3799 ft | 171 kts | 230° |
| 2026-05-04 11:45 | 43.31997 | 76.97840 | 4185 ft | 188 kts | 242° |
| 2026-05-04 11:46 | 43.31389 | 76.96197 | 4691 ft | 198 kts | 257° |
| 2026-05-04 11:46 | 43.31184 | 76.94296 | 5195 ft | 209 kts | 269° |
| 2026-05-04 11:46 | 43.31242 | 76.92256 | 5678 ft | 224 kts | 277° |
| 2026-05-04 11:46 | 43.31363 | 76.90009 | 6124 ft | 243 kts | 276° |
| 2026-05-04 11:47 | 43.31485 | 76.87642 | 6585 ft | 259 kts | 276° |
| 2026-05-04 11:47 | 43.31608 | 76.85168 | 7330 ft | 262 kts | 276° |
| 2026-05-04 11:47 | 43.31735 | 76.82610 | 7905 ft | 275 kts | 276° |
| 2026-05-04 11:47 | 43.31870 | 76.79916 | 8427 ft | 288 kts | 276° |
| 2026-05-04 11:48 | 43.32006 | 76.77180 | 9269 ft | 288 kts | 276° |
| 2026-05-04 11:48 | 43.32145 | 76.74406 | 9935 ft | 294 kts | 275° |
| 2026-05-04 11:48 | 43.32284 | 76.71586 | 10558 ft | 302 kts | 275° |
| 2026-05-04 11:48 | 43.32431 | 76.68612 | 10727 ft | 321 kts | 275° |
| 2026-05-04 11:49 | 43.32580 | 76.65517 | 10794 ft | 328 kts | 275° |
| 2026-05-04 11:49 | 43.32741 | 76.62366 | 10830 ft | 332 kts | 275° |
| 2026-05-04 11:49 | 43.32903 | 76.59196 | 10922 ft | 336 kts | 275° |
| 2026-05-04 11:49 | 43.33063 | 76.55997 | 11759 ft | 335 kts | 275° |
| 2026-05-04 11:50 | 43.33222 | 76.52783 | 12517 ft | 341 kts | 275° |
| 2026-05-04 11:50 | 43.33383 | 76.49513 | 13300 ft | 344 kts | 275° |
| 2026-05-04 11:50 | 43.33546 | 76.46210 | 14038 ft | 349 kts | 275° |
| 2026-05-04 11:50 | 43.33708 | 76.42863 | 14774 ft | 352 kts | 275° |
| 2026-05-04 11:51 | 43.33871 | 76.39503 | 15498 ft | 355 kts | 275° |
| 2026-05-04 11:51 | 43.34034 | 76.36106 | 16213 ft | 357 kts | 275° |
| 2026-05-04 11:51 | 43.34198 | 76.32682 | 16916 ft | 360 kts | 275° |
| 2026-05-04 11:51 | 43.34362 | 76.29234 | 17593 ft | 364 kts | 275° |
| 2026-05-04 11:52 | 43.34525 | 76.25792 | 18244 ft | 367 kts | 275° |
| 2026-05-04 11:52 | 43.34689 | 76.22285 | 18823 ft | 370 kts | 275° |
| 2026-05-04 11:52 | 43.34854 | 76.18737 | 19385 ft | 373 kts | 275° |
| 2026-05-04 11:52 | 43.35020 | 76.15170 | 19961 ft | 375 kts | 275° |
| 2026-05-04 11:53 | 43.35185 | 76.11582 | 20514 ft | 378 kts | 274° |
| 2026-05-04 11:53 | 43.35350 | 76.07976 | 21054 ft | 381 kts | 274° |
| 2026-05-04 11:53 | 43.35515 | 76.04334 | 21594 ft | 383 kts | 274° |
| 2026-05-04 11:53 | 43.35680 | 76.00660 | 22131 ft | 386 kts | 274° |
| 2026-05-04 11:55 | 43.36836 | 75.74226 | 25387 ft | 405 kts | 273° |
| 2026-05-04 11:55 | 43.37000 | 75.70355 | 25804 ft | 407 kts | 273° |
| 2026-05-04 11:56 | 43.37163 | 75.66472 | 26204 ft | 409 kts | 273° |
| 2026-05-04 11:56 | 43.37327 | 75.62551 | 26601 ft | 411 kts | 273° |
| 2026-05-04 11:56 | 43.37489 | 75.58620 | 26999 ft | 413 kts | 272° |
| 2026-05-04 11:56 | 43.37650 | 75.54711 | 27401 ft | 415 kts | 272° |
| 2026-05-04 11:57 | 43.37811 | 75.50744 | 27777 ft | 418 kts | 272° |
| 2026-05-04 11:57 | 43.37972 | 75.46749 | 28155 ft | 420 kts | 272° |
| 2026-05-04 11:57 | 43.38132 | 75.42737 | 28532 ft | 422 kts | 272° |
| 2026-05-04 11:57 | 43.38292 | 75.38697 | 28885 ft | 424 kts | 272° |
| 2026-05-04 11:58 | 43.38452 | 75.34634 | 29235 ft | 426 kts | 272° |
| 2026-05-04 11:58 | 43.38610 | 75.30559 | 29593 ft | 428 kts | 272° |
| 2026-05-04 11:58 | 43.38768 | 75.26461 | 29922 ft | 430 kts | 272° |
| 2026-05-04 11:58 | 43.38926 | 75.22340 | 30251 ft | 432 kts | 272° |
| 2026-05-04 11:59 | 43.39082 | 75.18206 | 30554 ft | 435 kts | 272° |
| 2026-05-04 11:59 | 43.39238 | 75.14037 | 30837 ft | 437 kts | 272° |
| 2026-05-04 11:59 | 43.39393 | 75.09854 | 31118 ft | 438 kts | 272° |
| 2026-05-04 11:59 | 43.39547 | 75.05665 | 31395 ft | 440 kts | 272° |
| 2026-05-04 12:00 | 43.39699 | 75.01510 | 31679 ft | 442 kts | 272° |
| 2026-05-04 12:00 | 43.39850 | 74.97289 | 32042 ft | 442 kts | 272° |
| 2026-05-04 12:00 | 43.40001 | 74.93068 | 32463 ft | 441 kts | 272° |
| 2026-05-04 12:00 | 43.40149 | 74.88857 | 32853 ft | 441 kts | 272° |
| 2026-05-04 12:01 | 43.40297 | 74.84643 | 33204 ft | 440 kts | 271° |
| 2026-05-04 12:01 | 43.40441 | 74.80441 | 33551 ft | 440 kts | 271° |
| 2026-05-04 12:02 | 43.41278 | 74.55279 | 34088 ft | 439 kts | 271° |
| 2026-05-04 12:03 | 43.41544 | 74.46890 | 34079 ft | 439 kts | 271° |
| 2026-05-04 12:03 | 43.41806 | 74.38489 | 34083 ft | 440 kts | 271° |
| 2026-05-04 12:04 | 43.42059 | 74.30070 | 34475 ft | 440 kts | 270° |
| 2026-05-04 12:04 | 43.41887 | 74.25878 | 34655 ft | 438 kts | 256° |
| 2026-05-04 12:04 | 43.41167 | 74.21824 | 34988 ft | 435 kts | 255° |
| 2026-05-04 12:05 | 43.40461 | 74.17765 | 35126 ft | 438 kts | 255° |
| 2026-05-04 12:05 | 43.39741 | 74.13686 | 35354 ft | 439 kts | 255° |
| 2026-05-04 12:05 | 43.39019 | 74.09619 | 35647 ft | 438 kts | 255° |
| 2026-05-04 12:05 | 43.38297 | 74.05567 | 35907 ft | 437 kts | 255° |
| 2026-05-04 12:06 | 43.37572 | 74.01498 | 36074 ft | 437 kts | 255° |
| 2026-05-04 12:06 | 43.36848 | 73.97451 | 36059 ft | 436 kts | 255° |
| 2026-05-04 12:06 | 43.35401 | 73.89385 | 36068 ft | 436 kts | 255° |
| 2026-05-04 12:07 | 43.33942 | 73.81288 | 36074 ft | 436 kts | 255° |
| 2026-05-04 12:07 | 43.32481 | 73.73210 | 36080 ft | 436 kts | 255° |
| 2026-05-04 12:08 | 43.31020 | 73.65172 | 36075 ft | 436 kts | 255° |
| 2026-05-04 12:08 | 43.29545 | 73.57096 | 36076 ft | 436 kts | 255° |
| 2026-05-04 12:09 | 43.28064 | 73.49015 | 36080 ft | 436 kts | 255° |
| 2026-05-04 12:09 | 43.26578 | 73.40946 | 36085 ft | 436 kts | 255° |
| 2026-05-04 12:10 | 43.25084 | 73.32867 | 36074 ft | 437 kts | 255° |
| 2026-05-04 12:10 | 43.23586 | 73.24801 | 36084 ft | 437 kts | 255° |
| 2026-05-04 12:11 | 43.22081 | 73.16730 | 36087 ft | 437 kts | 255° |
| 2026-05-04 12:11 | 43.20572 | 73.08658 | 36086 ft | 437 kts | 255° |
| 2026-05-04 12:12 | 43.19045 | 73.00600 | 36086 ft | 437 kts | 255° |
| 2026-05-04 12:12 | 43.17511 | 72.92525 | 36083 ft | 437 kts | 254° |
| 2026-05-04 12:14 | 43.11337 | 72.60353 | 36083 ft | 438 kts | 254° |
| 2026-05-04 12:15 | 43.09766 | 72.52249 | 36087 ft | 438 kts | 254° |
| 2026-05-04 12:15 | 43.08207 | 72.44244 | 36081 ft | 438 kts | 254° |
| 2026-05-04 12:16 | 43.06634 | 72.36199 | 36084 ft | 439 kts | 254° |
| 2026-05-04 12:16 | 43.05051 | 72.28136 | 36086 ft | 438 kts | 254° |
| 2026-05-04 12:17 | 43.03462 | 72.20074 | 36089 ft | 439 kts | 254° |
| 2026-05-04 12:17 | 43.01875 | 72.12052 | 36102 ft | 430 kts | 254° |
| 2026-05-04 12:18 | 43.00320 | 72.04229 | 36076 ft | 424 kts | 254° |
| 2026-05-04 12:18 | 42.98778 | 71.96496 | 36076 ft | 424 kts | 254° |
| 2026-05-04 12:19 | 42.97222 | 71.88720 | 36071 ft | 424 kts | 254° |
| 2026-05-04 12:19 | 42.95796 | 71.80915 | 36073 ft | 424 kts | 257° |
| 2026-05-04 12:20 | 42.94522 | 71.73059 | 36068 ft | 424 kts | 257° |
| 2026-05-04 12:20 | 42.93446 | 71.66520 | 36082 ft | 424 kts | 257° |
| 2026-05-04 12:21 | 42.92151 | 71.58674 | 36074 ft | 424 kts | 257° |
| 2026-05-04 12:21 | 42.90849 | 71.50826 | 36076 ft | 424 kts | 257° |
| 2026-05-04 12:22 | 42.89544 | 71.42993 | 36084 ft | 424 kts | 256° |
| 2026-05-04 12:22 | 42.88231 | 71.35154 | 36073 ft | 424 kts | 257° |
| 2026-05-04 12:23 | 42.86834 | 71.27335 | 36059 ft | 423 kts | 249° |
| 2026-05-04 12:23 | 42.84591 | 71.19919 | 36061 ft | 423 kts | 247° |
| 2026-05-04 12:24 | 42.82381 | 71.12589 | 35411 ft | 416 kts | 247° |
| 2026-05-04 12:24 | 42.81277 | 71.08927 | 34827 ft | 416 kts | 247° |
| 2026-05-04 12:24 | 42.80187 | 71.05317 | 34475 ft | 410 kts | 247° |
| 2026-05-04 12:25 | 42.79116 | 71.01772 | 33989 ft | 409 kts | 246° |
| 2026-05-04 12:25 | 42.78025 | 70.98169 | 33495 ft | 405 kts | 246° |
| 2026-05-04 12:25 | 42.76966 | 70.94680 | 32959 ft | 403 kts | 246° |
| 2026-05-04 12:25 | 42.75901 | 70.91169 | 32496 ft | 399 kts | 246° |
| 2026-05-04 12:26 | 42.74843 | 70.87689 | 32008 ft | 397 kts | 246° |
| 2026-05-04 12:26 | 42.73792 | 70.84237 | 31558 ft | 394 kts | 246° |
| 2026-05-04 12:26 | 42.72743 | 70.80792 | 31063 ft | 392 kts | 246° |
| 2026-05-04 12:26 | 42.71692 | 70.77348 | 30272 ft | 399 kts | 246° |
| 2026-05-04 12:27 | 42.70615 | 70.73824 | 29340 ft | 407 kts | 247° |
| 2026-05-04 12:27 | 42.69518 | 70.70238 | 28380 ft | 414 kts | 246° |
| 2026-05-04 12:27 | 42.68401 | 70.66593 | 27445 ft | 421 kts | 247° |
| 2026-05-04 12:27 | 42.67265 | 70.62883 | 26511 ft | 428 kts | 247° |
| 2026-05-04 12:28 | 42.66206 | 70.59072 | 25617 ft | 435 kts | 250° |
| 2026-05-04 12:28 | 42.65151 | 70.55196 | 24723 ft | 440 kts | 250° |
| 2026-05-04 12:28 | 42.64073 | 70.51274 | 23851 ft | 446 kts | 250° |
| 2026-05-04 12:28 | 42.62978 | 70.47310 | 22849 ft | 451 kts | 250° |
| 2026-05-04 12:29 | 42.61871 | 70.43306 | 21819 ft | 456 kts | 250° |
| 2026-05-04 12:29 | 42.60755 | 70.39248 | 20867 ft | 459 kts | 250° |
| 2026-05-04 12:29 | 42.59641 | 70.35205 | 20326 ft | 451 kts | 250° |
| 2026-05-04 12:29 | 42.58572 | 70.31337 | 20097 ft | 432 kts | 250° |
| 2026-05-04 12:30 | 42.57548 | 70.27634 | 20043 ft | 408 kts | 250° |
| 2026-05-04 12:30 | 42.56577 | 70.24126 | 19931 ft | 387 kts | 250° |
| 2026-05-04 12:30 | 42.55651 | 70.20786 | 19738 ft | 370 kts | 250° |
| 2026-05-04 12:30 | 42.54763 | 70.17586 | 19516 ft | 356 kts | 250° |
| 2026-05-04 12:31 | 42.53908 | 70.14511 | 19303 ft | 342 kts | 250° |
| 2026-05-04 12:31 | 42.53084 | 70.11548 | 19068 ft | 330 kts | 250° |
| 2026-05-04 12:31 | 42.52273 | 70.08634 | 18528 ft | 330 kts | 250° |
| 2026-05-04 12:31 | 42.51562 | 70.05687 | 17968 ft | 329 kts | 253° |
| 2026-05-04 12:32 | 42.50896 | 70.02725 | 17419 ft | 326 kts | 253° |
| 2026-05-04 12:32 | 42.49563 | 69.96911 | 16387 ft | 320 kts | 253° |
| 2026-05-04 12:32 | 42.48901 | 69.94045 | 15862 ft | 318 kts | 252° |
| 2026-05-04 12:33 | 42.48244 | 69.91202 | 15379 ft | 314 kts | 252° |
| 2026-05-04 12:33 | 42.47589 | 69.88377 | 14849 ft | 313 kts | 252° |
| 2026-05-04 12:33 | 42.46940 | 69.85581 | 14387 ft | 310 kts | 252° |
| 2026-05-04 12:33 | 42.46295 | 69.82802 | 13901 ft | 308 kts | 252° |
| 2026-05-04 12:34 | 42.45654 | 69.80047 | 13393 ft | 305 kts | 252° |
| 2026-05-04 12:34 | 42.45018 | 69.77314 | 12857 ft | 304 kts | 252° |
| 2026-05-04 12:34 | 42.44385 | 69.74600 | 12359 ft | 301 kts | 252° |
| 2026-05-04 12:34 | 42.43764 | 69.71939 | 11833 ft | 300 kts | 252° |
| 2026-05-04 12:35 | 42.43138 | 69.69262 | 11355 ft | 297 kts | 252° |
| 2026-05-04 12:35 | 42.42516 | 69.66606 | 10882 ft | 295 kts | 252° |
| 2026-05-04 12:35 | 42.41907 | 69.64006 | 10625 ft | 284 kts | 252° |
| 2026-05-04 12:35 | 42.41311 | 69.61464 | 10155 ft | 283 kts | 252° |
| 2026-05-04 12:36 | 42.40714 | 69.58924 | 9699 ft | 282 kts | 252° |
| 2026-05-04 12:36 | 42.40122 | 69.56407 | 9169 ft | 281 kts | 252° |
| 2026-05-04 12:36 | 42.39530 | 69.53890 | 8655 ft | 281 kts | 252° |
| 2026-05-04 12:36 | 42.38938 | 69.51375 | 8176 ft | 280 kts | 252° |
| 2026-05-04 12:37 | 42.38351 | 69.48885 | 7788 ft | 275 kts | 252° |
| 2026-05-04 12:37 | 42.37774 | 69.46442 | 7432 ft | 270 kts | 252° |
| 2026-05-04 12:37 | 42.37211 | 69.44046 | 7160 ft | 266 kts | 252° |
| 2026-05-04 12:37 | 42.36653 | 69.41639 | 7170 ft | 272 kts | 252° |
| 2026-05-04 12:38 | 42.36084 | 69.39184 | 7155 ft | 274 kts | 252° |
| 2026-05-04 12:38 | 42.35515 | 69.36724 | 7157 ft | 274 kts | 252° |
| 2026-05-04 12:38 | 42.34952 | 69.34281 | 7107 ft | 270 kts | 252° |
| 2026-05-04 12:38 | 42.34408 | 69.31912 | 7011 ft | 257 kts | 252° |
| 2026-05-04 12:39 | 42.33896 | 69.29675 | 6920 ft | 241 kts | 252° |
| 2026-05-04 12:39 | 42.33412 | 69.27548 | 6629 ft | 236 kts | 252° |
| 2026-05-04 12:39 | 42.32929 | 69.25420 | 6162 ft | 238 kts | 252° |
| 2026-05-04 12:39 | 42.32448 | 69.23285 | 5766 ft | 237 kts | 252° |
| 2026-05-04 12:40 | 42.31971 | 69.21191 | 5380 ft | 235 kts | 252° |
| 2026-05-04 12:40 | 42.31489 | 69.19081 | 5105 ft | 229 kts | 252° |
| 2026-05-04 12:40 | 42.31027 | 69.17072 | 4940 ft | 218 kts | 252° |
| 2026-05-04 12:40 | 42.30672 | 69.15179 | 4856 ft | 206 kts | 270° |
| 2026-05-04 12:41 | 42.31071 | 69.13343 | 4758 ft | 204 kts | 305° |
| 2026-05-04 12:41 | 42.32071 | 69.12036 | 4675 ft | 204 kts | 334° |
| 2026-05-04 12:41 | 42.33419 | 69.11531 | 4579 ft | 202 kts | 2° |
| 2026-05-04 12:41 | 42.34768 | 69.11918 | 4508 ft | 199 kts | 23° |
| 2026-05-04 12:42 | 42.36103 | 69.12473 | 4506 ft | 200 kts | 17° |
| 2026-05-04 12:42 | 42.37440 | 69.12933 | 4508 ft | 194 kts | 17° |
| 2026-05-04 12:42 | 42.38718 | 69.13364 | 4482 ft | 191 kts | 16° |
| 2026-05-04 12:42 | 42.39914 | 69.14071 | 4464 ft | 187 kts | 41° |
| 2026-05-04 12:43 | 42.40760 | 69.15382 | 4501 ft | 186 kts | 63° |
| 2026-05-04 12:43 | 42.41191 | 69.17015 | 4500 ft | 185 kts | 83° |
| 2026-05-04 12:43 | 42.41317 | 69.18746 | 4489 ft | 186 kts | 80° |
| 2026-05-04 12:43 | 42.41697 | 69.20420 | 4498 ft | 186 kts | 79° |
| 2026-05-04 12:44 | 42.41662 | 69.22138 | 4459 ft | 183 kts | 103° |
| 2026-05-04 12:44 | 42.41391 | 69.23827 | 4368 ft | 184 kts | 104° |
| 2026-05-04 12:44 | 42.41095 | 69.25516 | 4218 ft | 184 kts | 104° |
| 2026-05-04 12:44 | 42.40778 | 69.27179 | 3996 ft | 183 kts | 102° |
| 2026-05-04 12:45 | 42.40518 | 69.28822 | 3782 ft | 175 kts | 104° |
| 2026-05-04 12:45 | 42.40209 | 69.30392 | 3565 ft | 169 kts | 107° |
| 2026-05-04 12:45 | 42.39882 | 69.31903 | 3377 ft | 166 kts | 107° |
| 2026-05-04 12:45 | 42.39556 | 69.33407 | 3165 ft | 166 kts | 107° |
| 2026-05-04 12:46 | 42.39238 | 69.34883 | 2947 ft | 161 kts | 107° |
| 2026-05-04 12:46 | 42.38929 | 69.36325 | 2747 ft | 157 kts | 107° |
| 2026-05-04 12:46 | 42.38627 | 69.37722 | 2532 ft | 152 kts | 107° |
| 2026-05-04 12:46 | 42.38331 | 69.39093 | 2335 ft | 152 kts | 107° |
| 2026-05-04 12:47 | 42.38035 | 69.40465 | 2128 ft | 152 kts | 107° |
| 2026-05-04 12:47 | 42.37740 | 69.41838 | 1919 ft | 151 kts | 107° |
| 2026-05-04 12:47 | 42.37446 | 69.43204 | 1706 ft | 151 kts | 106° |
| 2026-05-04 12:47 | 42.37162 | 69.44549 | 1525 ft | 150 kts | 105° |
| 2026-05-04 12:48 | 42.36871 | 69.45882 | 1368 ft | 143 kts | 106° |
| 2026-05-04 12:48 | 42.36616 | 69.47040 | 1358 ft | 109 kts | 105° |
| 2026-05-04 12:48 | 42.36460 | 69.47773 | 1362 ft | 52 kts | 106° |
| 2026-05-04 12:48 | 42.36402 | 69.48050 | 1360 ft | 10 kts | 103° |
| 2026-05-04 12:49 | 42.36436 | 69.48109 | 1360 ft | 10 kts | 16° |
| 2026-05-04 12:49 | 42.36480 | 69.48129 | 1358 ft | 0 kts | 22° |
| 2026-05-04 12:49 | 42.36488 | 69.48138 | 1358 ft | 4 kts | 44° |
| 2026-05-04 12:49 | 42.36497 | 69.48187 | 1358 ft | 7 kts | 95° |
| 2026-05-04 12:50 | 42.36484 | 69.48256 | 1359 ft | 8 kts | 108° |
| 2026-05-04 12:50 | 42.36467 | 69.48341 | 1358 ft | 10 kts | 104° |
| 2026-05-04 12:50 | 42.36444 | 69.48445 | 1359 ft | 13 kts | 107° |
| 2026-05-04 12:50 | 42.36416 | 69.48578 | 1357 ft | 16 kts | 105° |
| 2026-05-04 12:51 | 42.36401 | 69.48713 | 1357 ft | 13 kts | 68° |
| 2026-05-04 12:51 | 42.36463 | 69.48753 | 1358 ft | 12 kts | 12° |
| 2026-05-04 12:51 | 42.36501 | 69.48771 | 1359 ft | 0 kts | 23° |
| 2026-05-04 12:51 | 42.36511 | 69.48777 | 1359 ft | 4 kts | 26° |
| 2026-05-04 12:52 | 42.36565 | 69.48817 | 1358 ft | 9 kts | 30° |
| 2026-05-04 12:52 | 42.36568 | 69.48922 | 1358 ft | 14 kts | 112° |
| 2026-05-04 12:52 | 42.36558 | 69.49021 | 1359 ft | 9 kts | 53° |
| 2026-05-04 12:52 | 42.36596 | 69.49067 | 1360 ft | 7 kts | 38° |
| 2026-05-04 12:53 | 42.36630 | 69.49092 | 1358 ft | 1 kts | 24° |
| 2026-05-04 12:53 | 42.36640 | 69.49098 | 1360 ft | 0 kts | 24° |